Time,TemperatureF,DewpointF,PressureIn,WindDirection,WindDirectionDegrees,WindSpeedMPH,WindSpeedGustMPH,Humidity,HourlyPrecipIn,Conditions,Clouds,dailyrainin,SoftwareType,DateUTC
2013-02-12 00:02:00,36.9,29.0,30.07,WNW,284,0.0,-999.0,72,-99.99,,,0.00,weatherlink.com 1.10,2013-02-12 05:02:00,
2013-02-12 00:17:00,36.2,29.0,30.07,WNW,284,0.0,-999.0,74,-99.99,,,0.00,weatherlink.com 1.10,2013-02-12 05:17:00,
2013-02-12 00:32:00,35.8,29.0,30.07,WNW,284,0.0,-999.0,75,-99.99,,,0.00,weatherlink.com 1.10,2013-02-12 05:32:00,
2013-02-12 00:47:00,35.7,29.0,30.07,WNW,284,0.0,-999.0,75,-99.99,,,0.00,weatherlink.com 1.10,2013-02-12 05:47:00,
2013-02-12 01:02:00,35.1,28.0,30.07,WNW,284,0.0,-999.0,75,-99.99,,,0.00,weatherlink.com 1.10,2013-02-12 06:02:00,
2013-02-12 01:17:00,34.7,28.0,30.07,WNW,284,0.0,-999.0,76,-99.99,,,0.00,weatherlink.com 1.10,2013-02-12 06:17:00,
2013-02-12 01:32:00,34.3,27.0,30.08,WNW,284,0.0,-999.0,76,-99.99,,,0.00,weatherlink.com 1.10,2013-02-12 06:32:00,
2013-02-12 01:47:00,34.3,27.0,30.08,WNW,284,0.0,-999.0,76,-99.99,,,0.00,weatherlink.com 1.10,2013-02-12 06:47:00,
2013-02-12 02:02:00,34.3,27.0,30.08,WNW,284,0.0,-999.0,76,-99.99,,,0.00,weatherlink.com 1.10,2013-02-12 07:02:00,
2013-02-12 02:17:00,33.6,27.0,30.07,WNW,284,0.0,-999.0,77,-99.99,,,0.00,weatherlink.com 1.10,2013-02-12 07:17:00,
2013-02-12 02:32:00,33.0,27.0,30.07,WNW,284,0.0,-999.0,78,-99.99,,,0.00,weatherlink.com 1.10,2013-02-12 07:32:00,
2013-02-12 02:47:00,33.4,27.0,30.08,WNW,284,0.0,-999.0,78,-99.99,,,0.00,weatherlink.com 1.10,2013-02-12 07:47:00,
2013-02-12 03:02:00,33.4,27.0,30.08,WNW,284,0.0,-999.0,78,-99.99,,,0.00,weatherlink.com 1.10,2013-02-12 08:02:00,
2013-02-12 03:17:00,33.2,27.0,30.08,WNW,284,0.0,-999.0,77,-99.99,,,0.00,weatherlink.com 1.10,2013-02-12 08:17:00,
2013-02-12 03:32:00,32.8,27.0,30.08,WNW,284,0.0,-999.0,78,-99.99,,,0.00,weatherlink.com 1.10,2013-02-12 08:32:00,
2013-02-12 03:47:00,32.4,26.0,30.08,WNW,284,0.0,-999.0,78,-99.99,,,0.00,weatherlink.com 1.10,2013-02-12 08:47:00,
2013-02-12 04:02:00,31.9,26.0,30.08,WNW,284,0.0,-999.0,79,-99.99,,,0.00,weatherlink.com 1.10,2013-02-12 09:02:00,
2013-02-12 04:17:00,31.6,26.0,30.08,WNW,284,0.0,-999.0,80,-99.99,,,0.00,weatherlink.com 1.10,2013-02-12 09:17:00,
2013-02-12 04:32:00,32.3,27.0,30.09,WNW,284,0.0,-999.0,80,-99.99,,,0.00,weatherlink.com 1.10,2013-02-12 09:32:00,
2013-02-12 04:47:00,33.1,27.0,30.10,WNW,284,0.0,-999.0,78,-99.99,,,0.00,weatherlink.com 1.10,2013-02-12 09:47:00,
2013-02-12 05:03:00,33.2,27.0,30.09,WNW,284,0.0,-999.0,77,-99.99,,,0.00,weatherlink.com 1.10,2013-02-12 10:03:00,
2013-02-12 05:17:00,32.6,26.0,30.10,WNW,284,0.0,-999.0,78,-99.99,,,0.00,weatherlink.com 1.10,2013-02-12 10:17:00,
2013-02-12 05:32:00,32.3,26.0,30.10,WNW,284,0.0,-999.0,78,-99.99,,,0.00,weatherlink.com 1.10,2013-02-12 10:32:00,
2013-02-12 05:48:00,31.8,26.0,30.11,WNW,284,0.0,-999.0,79,-99.99,,,0.00,weatherlink.com 1.10,2013-02-12 10:48:00,
2013-02-12 06:02:00,31.5,26.0,30.11,WNW,284,0.0,-999.0,80,-99.99,,,0.00,weatherlink.com 1.10,2013-02-12 11:02:00,
2013-02-12 06:17:00,31.4,26.0,30.12,WNW,284,0.0,-999.0,80,-99.99,,,0.00,weatherlink.com 1.10,2013-02-12 11:17:00,
2013-02-12 06:32:00,31.0,26.0,30.12,WNW,284,0.0,-999.0,82,-99.99,,,0.00,weatherlink.com 1.10,2013-02-12 11:32:00,
2013-02-12 06:48:00,30.8,26.0,30.12,WNW,284,0.0,-999.0,81,-99.99,,,0.00,weatherlink.com 1.10,2013-02-12 11:48:00,
2013-02-12 07:02:00,30.5,26.0,30.12,WNW,284,0.0,-999.0,82,-99.99,,,0.00,weatherlink.com 1.10,2013-02-12 12:02:00,
2013-02-12 07:18:00,30.2,26.0,30.12,WNW,284,0.0,-999.0,83,-99.99,,,0.00,weatherlink.com 1.10,2013-02-12 12:18:00,
2013-02-12 07:32:00,29.9,25.0,30.12,WNW,284,0.0,-999.0,83,-99.99,,,0.00,weatherlink.com 1.10,2013-02-12 12:32:00,
2013-02-12 07:47:00,29.7,25.0,30.12,WNW,284,0.0,-999.0,84,-99.99,,,0.00,weatherlink.com 1.10,2013-02-12 12:47:00,
2013-02-12 08:03:00,29.7,26.0,30.13,WNW,284,0.0,-999.0,85,-99.99,,,0.00,weatherlink.com 1.10,2013-02-12 13:03:00,
2013-02-12 08:18:00,30.1,26.0,30.13,WNW,284,0.0,-999.0,86,-99.99,,,0.00,weatherlink.com 1.10,2013-02-12 13:18:00,
2013-02-12 08:33:00,31.7,28.0,30.14,WNW,284,0.0,-999.0,86,-99.99,,,0.00,weatherlink.com 1.10,2013-02-12 13:33:00,
2013-02-12 08:48:00,34.3,29.0,30.14,WNW,284,0.0,-999.0,82,-99.99,,,0.00,weatherlink.com 1.10,2013-02-12 13:48:00,
2013-02-12 09:03:00,38.4,30.0,30.14,WNW,284,1.0,-999.0,73,-99.99,,,0.00,weatherlink.com 1.10,2013-02-12 14:03:00,
2013-02-12 09:18:00,40.8,31.0,30.14,WNW,284,0.0,-999.0,68,-99.99,,,0.00,weatherlink.com 1.10,2013-02-12 14:18:00,
2013-02-12 09:33:00,42.0,31.0,30.14,WNW,284,0.0,-999.0,65,-99.99,,,0.00,weatherlink.com 1.10,2013-02-12 14:33:00,
2013-02-12 09:48:00,42.6,30.0,30.14,WNW,285,0.0,-999.0,61,-99.99,,,0.00,weatherlink.com 1.10,2013-02-12 14:48:00,
2013-02-12 10:03:00,43.3,30.0,30.13,WNW,295,4.0,-999.0,60,-99.99,,,0.00,weatherlink.com 1.10,2013-02-12 15:03:00,
2013-02-12 10:18:00,43.7,30.0,30.12,WNW,292,4.0,-999.0,59,-99.99,,,0.00,weatherlink.com 1.10,2013-02-12 15:18:00,
2013-02-12 10:33:00,44.6,29.0,30.11,West,263,1.0,-999.0,55,-99.99,,,0.00,weatherlink.com 1.10,2013-02-12 15:33:00,
2013-02-12 10:48:00,45.7,29.0,30.11,West,263,0.0,-999.0,53,-99.99,,,0.00,weatherlink.com 1.10,2013-02-12 15:48:00,
2013-02-12 11:03:00,45.8,28.0,30.11,WSW,255,0.0,-999.0,51,-99.99,,,0.00,weatherlink.com 1.10,2013-02-12 16:03:00,
2013-02-12 11:18:00,46.5,29.0,30.09,NW,309,3.0,-999.0,51,-99.99,,,0.00,weatherlink.com 1.10,2013-02-12 16:18:00,
2013-02-12 11:33:00,46.5,30.0,30.09,WNW,292,4.0,-999.0,53,-99.99,,,0.00,weatherlink.com 1.10,2013-02-12 16:33:00,
2013-02-12 11:48:00,47.1,30.0,30.08,NNW,343,3.0,-999.0,52,-99.99,,,0.00,weatherlink.com 1.10,2013-02-12 16:48:00,
2013-02-12 12:03:00,47.9,29.0,30.03,North,355,0.0,-999.0,49,-99.99,,,0.00,weatherlink.com 1.10,2013-02-12 17:03:00,
2013-02-12 12:18:00,48.1,28.0,30.04,East,90,4.0,-999.0,45,-99.99,,,0.00,weatherlink.com 1.10,2013-02-12 17:18:00,
2013-02-12 12:33:00,48.3,28.0,30.02,ESE,112,0.0,-999.0,45,-99.99,,,0.00,weatherlink.com 1.10,2013-02-12 17:33:00,
2013-02-12 12:48:00,49.0,29.0,30.06,SSW,207,3.0,-999.0,47,-99.99,,,0.00,weatherlink.com 1.10,2013-02-12 17:48:00,
2013-02-12 13:19:00,50.9,30.0,30.08,WSW,252,5.0,-999.0,45,-99.99,,,0.00,weatherlink.com 1.10,2013-02-12 18:19:00,
2013-02-12 13:34:00,50.0,27.0,30.07,West,277,6.0,-999.0,41,-99.99,,,0.00,weatherlink.com 1.10,2013-02-12 18:34:00,
2013-02-12 13:49:00,50.9,27.0,30.06,WNW,288,4.0,-999.0,40,-99.99,,,0.00,weatherlink.com 1.10,2013-02-12 18:49:00,
2013-02-12 14:03:00,51.0,27.0,30.06,West,272,6.0,-999.0,40,-99.99,,,0.00,weatherlink.com 1.10,2013-02-12 19:03:00,
2013-02-12 14:18:00,51.2,28.0,30.04,NW,321,2.0,-999.0,41,-99.99,,,0.00,weatherlink.com 1.10,2013-02-12 19:18:00,
2013-02-12 14:48:00,50.9,27.0,30.03,NW,306,3.0,-999.0,39,-99.99,,,0.00,weatherlink.com 1.10,2013-02-12 19:48:00,
2013-02-12 15:03:00,50.8,27.0,30.03,NW,305,0.0,-999.0,40,-99.99,,,0.00,weatherlink.com 1.10,2013-02-12 20:03:00,
2013-02-12 15:18:00,50.7,27.0,30.04,NW,305,4.0,-999.0,40,-99.99,,,0.00,weatherlink.com 1.10,2013-02-12 20:18:00,
2013-02-12 15:34:00,50.5,27.0,30.04,WNW,292,3.0,-999.0,40,-99.99,,,0.00,weatherlink.com 1.10,2013-02-12 20:34:00,
2013-02-12 15:49:00,50.3,28.0,30.03,WNW,292,3.0,-999.0,42,-99.99,,,0.00,weatherlink.com 1.10,2013-02-12 20:49:00,
2013-02-12 16:04:00,50.4,27.0,30.02,NW,305,4.0,-999.0,41,-99.99,,,0.00,weatherlink.com 1.10,2013-02-12 21:04:00,
2013-02-12 16:19:00,50.3,27.0,30.01,NW,305,4.0,-999.0,41,-99.99,,,0.00,weatherlink.com 1.10,2013-02-12 21:19:00,
2013-02-12 16:34:00,50.1,28.0,30.01,NW,305,0.0,-999.0,43,-99.99,,,0.00,weatherlink.com 1.10,2013-02-12 21:34:00,
2013-02-12 16:49:00,49.9,27.0,30.00,NW,305,0.0,-999.0,42,-99.99,,,0.00,weatherlink.com 1.10,2013-02-12 21:49:00,
2013-02-12 17:04:00,49.9,28.0,29.98,NW,305,0.0,-999.0,43,-99.99,,,0.00,weatherlink.com 1.10,2013-02-12 22:04:00,
2013-02-12 17:19:00,49.5,28.0,29.96,NW,305,0.0,-999.0,43,-99.99,,,0.00,weatherlink.com 1.10,2013-02-12 22:19:00,
2013-02-12 17:34:00,49.2,29.0,29.94,NW,305,0.0,-999.0,46,-99.99,,,0.00,weatherlink.com 1.10,2013-02-12 22:34:00,
2013-02-12 17:49:00,48.7,30.0,29.93,NW,305,0.0,-999.0,48,-99.99,,,0.00,weatherlink.com 1.10,2013-02-12 22:49:00,
2013-02-12 18:04:00,48.1,30.0,29.94,NW,305,0.0,-999.0,49,-99.99,,,0.00,weatherlink.com 1.10,2013-02-12 23:04:00,
2013-02-12 18:19:00,47.3,29.0,29.94,NW,305,0.0,-999.0,50,-99.99,,,0.00,weatherlink.com 1.10,2013-02-12 23:19:00,
2013-02-12 18:34:00,46.3,30.0,29.94,NW,305,0.0,-999.0,53,-99.99,,,0.00,weatherlink.com 1.10,2013-02-12 23:34:00,
2013-02-12 18:49:00,45.4,30.0,29.94,NW,305,0.0,-999.0,55,-99.99,,,0.00,weatherlink.com 1.10,2013-02-12 23:49:00,
2013-02-12 19:04:00,44.8,31.0,29.94,NW,305,0.0,-999.0,58,-99.99,,,0.00,weatherlink.com 1.10,2013-02-13 00:04:00,
2013-02-12 19:19:00,44.0,29.0,29.94,NW,305,0.0,-999.0,57,-99.99,,,0.00,weatherlink.com 1.10,2013-02-13 00:19:00,
2013-02-12 19:34:00,43.5,31.0,29.96,NW,305,0.0,-999.0,61,-99.99,,,0.00,weatherlink.com 1.10,2013-02-13 00:34:00,
2013-02-12 19:49:00,43.1,31.0,29.95,NW,305,0.0,-999.0,62,-99.99,,,0.00,weatherlink.com 1.10,2013-02-13 00:49:00,
2013-02-12 20:04:00,42.4,30.0,29.94,NW,305,0.0,-999.0,62,-99.99,,,0.00,weatherlink.com 1.10,2013-02-13 01:04:00,
2013-02-12 20:19:00,41.7,30.0,29.95,NW,305,0.0,-999.0,64,-99.99,,,0.00,weatherlink.com 1.10,2013-02-13 01:19:00,
2013-02-12 20:34:00,41.0,31.0,29.94,NW,305,0.0,-999.0,67,-99.99,,,0.00,weatherlink.com 1.10,2013-02-13 01:34:00,
2013-02-12 20:49:00,40.2,31.0,29.95,NW,305,0.0,-999.0,70,-99.99,,,0.00,weatherlink.com 1.10,2013-02-13 01:49:00,
2013-02-12 21:04:00,39.8,31.0,29.92,NW,305,0.0,-999.0,71,-99.99,,,0.00,weatherlink.com 1.10,2013-02-13 02:04:00,
2013-02-12 21:19:00,39.5,30.0,29.93,NW,305,0.0,-999.0,70,-99.99,,,0.00,weatherlink.com 1.10,2013-02-13 02:19:00,
2013-02-12 21:34:00,38.9,30.0,29.93,NW,305,0.0,-999.0,70,-99.99,,,0.00,weatherlink.com 1.10,2013-02-13 02:34:00,
2013-02-12 21:49:00,38.0,30.0,29.92,NW,305,0.0,-999.0,72,-99.99,,,0.00,weatherlink.com 1.10,2013-02-13 02:49:00,
2013-02-12 22:04:00,37.1,30.0,29.92,NW,305,0.0,-999.0,74,-99.99,,,0.00,weatherlink.com 1.10,2013-02-13 03:04:00,
2013-02-12 22:19:00,37.1,30.0,29.91,NW,305,0.0,-999.0,74,-99.99,,,0.00,weatherlink.com 1.10,2013-02-13 03:19:00,
2013-02-12 22:34:00,36.7,30.0,29.91,NW,305,0.0,-999.0,76,-99.99,,,0.00,weatherlink.com 1.10,2013-02-13 03:34:00,
2013-02-12 22:49:00,36.5,30.0,29.90,NW,305,0.0,-999.0,76,-99.99,,,0.00,weatherlink.com 1.10,2013-02-13 03:49:00,
2013-02-12 23:04:00,36.2,30.0,29.89,NW,305,0.0,-999.0,77,-99.99,,,0.00,weatherlink.com 1.10,2013-02-13 04:04:00,
2013-02-12 23:19:00,35.8,29.0,29.89,NW,305,0.0,-999.0,77,-99.99,,,0.00,weatherlink.com 1.10,2013-02-13 04:19:00,
2013-02-12 23:34:00,35.8,30.0,29.88,NW,305,0.0,-999.0,78,-99.99,,,0.00,weatherlink.com 1.10,2013-02-13 04:34:00,
2013-02-12 23:49:00,35.9,30.0,29.86,NW,305,0.0,-999.0,79,-99.99,,,0.00,weatherlink.com 1.10,2013-02-13 04:49:00,